sensor_id;sensor_type;location;lat;lon;timestamp;temperature;humidity
2889;DHT22;1453;42.708;23.282;2023-03-07T00:01:25;8.70;99.90
2889;DHT22;1453;42.708;23.282;2023-03-07T00:03:52;8.70;99.90
2889;DHT22;1453;42.708;23.282;2023-03-07T00:06:18;8.90;99.90
2889;DHT22;1453;42.708;23.282;2023-03-07T00:08:51;8.90;99.90
2889;DHT22;1453;42.708;23.282;2023-03-07T00:11:18;9.00;99.90
2889;DHT22;1453;42.708;23.282;2023-03-07T00:13:44;9.10;99.90
2889;DHT22;1453;42.708;23.282;2023-03-07T00:16:13;9.10;99.90
2889;DHT22;1453;42.708;23.282;2023-03-07T00:18:41;9.20;99.90
2889;DHT22;1453;42.708;23.282;2023-03-07T00:21:09;9.30;99.90
2889;DHT22;1453;42.708;23.282;2023-03-07T00:23:39;9.30;99.90
2889;DHT22;1453;42.708;23.282;2023-03-07T00:26:26;9.30;99.90
2889;DHT22;1453;42.708;23.282;2023-03-07T00:28:53;9.30;99.90
2889;DHT22;1453;42.708;23.282;2023-03-07T00:31:20;9.00;99.90
2889;DHT22;1453;42.708;23.282;2023-03-07T00:33:47;9.00;99.90
2889;DHT22;1453;42.708;23.282;2023-03-07T00:36:15;8.90;99.90
2889;DHT22;1453;42.708;23.282;2023-03-07T00:38:45;8.70;99.90
2889;DHT22;1453;42.708;23.282;2023-03-07T00:41:14;8.50;99.90
2889;DHT22;1453;42.708;23.282;2023-03-07T00:43:42;8.40;99.90
2889;DHT22;1453;42.708;23.282;2023-03-07T00:46:08;8.20;99.90
2889;DHT22;1453;42.708;23.282;2023-03-07T00:48:36;8.10;99.90
2889;DHT22;1453;42.708;23.282;2023-03-07T00:51:04;8.10;99.90
2889;DHT22;1453;42.708;23.282;2023-03-07T00:53:32;8.10;99.90
2889;DHT22;1453;42.708;23.282;2023-03-07T00:56:01;7.90;99.90
2889;DHT22;1453;42.708;23.282;2023-03-07T00:58:35;8.00;99.90
2889;DHT22;1453;42.708;23.282;2023-03-07T01:01:02;8.10;99.90
2889;DHT22;1453;42.708;23.282;2023-03-07T01:03:30;8.20;99.90
2889;DHT22;1453;42.708;23.282;2023-03-07T01:05:57;8.20;99.90
2889;DHT22;1453;42.708;23.282;2023-03-07T01:08:27;8.10;99.90
2889;DHT22;1453;42.708;23.282;2023-03-07T01:10:58;8.00;99.90
2889;DHT22;1453;42.708;23.282;2023-03-07T01:13:25;8.00;99.90
2889;DHT22;1453;42.708;23.282;2023-03-07T01:15:51;8.00;99.90
2889;DHT22;1453;42.708;23.282;2023-03-07T01:18:16;7.90;99.90
2889;DHT22;1453;42.708;23.282;2023-03-07T01:20:42;7.90;99.90
2889;DHT22;1453;42.708;23.282;2023-03-07T01:23:08;7.80;99.90
2889;DHT22;1453;42.708;23.282;2023-03-07T01:25:39;7.70;99.90
2889;DHT22;1453;42.708;23.282;2023-03-07T01:28:06;7.70;99.90
2889;DHT22;1453;42.708;23.282;2023-03-07T01:30:32;7.70;99.90
2889;DHT22;1453;42.708;23.282;2023-03-07T01:32:59;7.70;99.90
2889;DHT22;1453;42.708;23.282;2023-03-07T01:35:28;7.80;99.90
2889;DHT22;1453;42.708;23.282;2023-03-07T01:37:54;7.90;99.90
2889;DHT22;1453;42.708;23.282;2023-03-07T01:40:22;8.00;99.90
2889;DHT22;1453;42.708;23.282;2023-03-07T01:42:48;8.00;99.90
2889;DHT22;1453;42.708;23.282;2023-03-07T01:47:40;8.10;99.90
2889;DHT22;1453;42.708;23.282;2023-03-07T01:50:15;8.00;99.90
2889;DHT22;1453;42.708;23.282;2023-03-07T01:52:55;8.10;99.90
2889;DHT22;1453;42.708;23.282;2023-03-07T01:55:32;8.00;99.90
2889;DHT22;1453;42.708;23.282;2023-03-07T01:58:05;8.10;99.90
2889;DHT22;1453;42.708;23.282;2023-03-07T02:00:33;7.70;99.90
2889;DHT22;1453;42.708;23.282;2023-03-07T02:06:00;7.30;99.90
2889;DHT22;1453;42.708;23.282;2023-03-07T02:08:27;7.20;99.90
2889;DHT22;1453;42.708;23.282;2023-03-07T02:10:54;7.30;99.90
2889;DHT22;1453;42.708;23.282;2023-03-07T02:13:20;7.30;99.90
2889;DHT22;1453;42.708;23.282;2023-03-07T02:15:46;7.20;99.90
2889;DHT22;1453;42.708;23.282;2023-03-07T02:18:17;7.30;99.90
2889;DHT22;1453;42.708;23.282;2023-03-07T02:23:49;7.60;99.90
2889;DHT22;1453;42.708;23.282;2023-03-07T02:28:57;7.40;99.90
2889;DHT22;1453;42.708;23.282;2023-03-07T02:31:23;7.60;99.90
2889;DHT22;1453;42.708;23.282;2023-03-07T02:33:49;7.70;99.90
2889;DHT22;1453;42.708;23.282;2023-03-07T02:36:19;7.90;99.90
2889;DHT22;1453;42.708;23.282;2023-03-07T02:38:49;7.60;99.90
2889;DHT22;1453;42.708;23.282;2023-03-07T02:41:18;7.60;99.90
2889;DHT22;1453;42.708;23.282;2023-03-07T02:43:45;7.70;99.90
2889;DHT22;1453;42.708;23.282;2023-03-07T02:46:11;7.80;99.90
2889;DHT22;1453;42.708;23.282;2023-03-07T02:48:37;7.90;99.90
2889;DHT22;1453;42.708;23.282;2023-03-07T02:51:03;8.00;99.90
2889;DHT22;1453;42.708;23.282;2023-03-07T02:53:29;8.00;99.90
2889;DHT22;1453;42.708;23.282;2023-03-07T02:55:55;8.00;99.90
2889;DHT22;1453;42.708;23.282;2023-03-07T02:58:21;8.10;99.90
2889;DHT22;1453;42.708;23.282;2023-03-07T03:00:47;8.00;99.90
2889;DHT22;1453;42.708;23.282;2023-03-07T03:03:12;8.10;99.90
2889;DHT22;1453;42.708;23.282;2023-03-07T03:05:38;8.00;99.90
2889;DHT22;1453;42.708;23.282;2023-03-07T03:08:04;7.90;99.90
2889;DHT22;1453;42.708;23.282;2023-03-07T03:10:31;7.80;99.90
2889;DHT22;1453;42.708;23.282;2023-03-07T03:12:57;7.70;99.90
2889;DHT22;1453;42.708;23.282;2023-03-07T03:15:22;7.70;99.90
2889;DHT22;1453;42.708;23.282;2023-03-07T03:17:48;7.60;99.90
2889;DHT22;1453;42.708;23.282;2023-03-07T03:20:14;7.60;99.90
2889;DHT22;1453;42.708;23.282;2023-03-07T03:22:41;7.50;99.90
2889;DHT22;1453;42.708;23.282;2023-03-07T03:25:09;7.40;99.90
2889;DHT22;1453;42.708;23.282;2023-03-07T03:27:37;7.50;99.90
2889;DHT22;1453;42.708;23.282;2023-03-07T03:30:04;7.40;99.90
2889;DHT22;1453;42.708;23.282;2023-03-07T03:32:31;7.20;99.90
2889;DHT22;1453;42.708;23.282;2023-03-07T03:34:58;7.30;99.90
2889;DHT22;1453;42.708;23.282;2023-03-07T03:37:24;7.40;99.90
2889;DHT22;1453;42.708;23.282;2023-03-07T03:39:54;7.50;99.90
2889;DHT22;1453;42.708;23.282;2023-03-07T03:42:20;7.50;99.90
2889;DHT22;1453;42.708;23.282;2023-03-07T03:44:45;7.50;99.90
2889;DHT22;1453;42.708;23.282;2023-03-07T03:47:11;7.70;99.90
2889;DHT22;1453;42.708;23.282;2023-03-07T03:49:37;7.80;99.90
2889;DHT22;1453;42.708;23.282;2023-03-07T03:52:03;7.80;99.90
2889;DHT22;1453;42.708;23.282;2023-03-07T03:54:29;7.80;99.90
2889;DHT22;1453;42.708;23.282;2023-03-07T03:56:56;7.70;99.90
2889;DHT22;1453;42.708;23.282;2023-03-07T03:59:22;7.20;99.90
2889;DHT22;1453;42.708;23.282;2023-03-07T04:01:48;7.40;99.90
2889;DHT22;1453;42.708;23.282;2023-03-07T04:04:14;7.50;99.90
2889;DHT22;1453;42.708;23.282;2023-03-07T04:06:40;7.50;99.90
2889;DHT22;1453;42.708;23.282;2023-03-07T04:09:07;7.60;99.90
2889;DHT22;1453;42.708;23.282;2023-03-07T04:11:35;7.60;99.90
2889;DHT22;1453;42.708;23.282;2023-03-07T04:14:01;7.50;99.90
2889;DHT22;1453;42.708;23.282;2023-03-07T04:16:27;7.40;99.90
2889;DHT22;1453;42.708;23.282;2023-03-07T04:18:53;7.30;99.90
2889;DHT22;1453;42.708;23.282;2023-03-07T04:21:20;7.40;99.90
2889;DHT22;1453;42.708;23.282;2023-03-07T04:23:46;7.40;99.90
2889;DHT22;1453;42.708;23.282;2023-03-07T04:26:20;7.50;99.90
2889;DHT22;1453;42.708;23.282;2023-03-07T04:28:46;7.60;99.90
2889;DHT22;1453;42.708;23.282;2023-03-07T04:31:16;7.80;99.90
2889;DHT22;1453;42.708;23.282;2023-03-07T04:33:44;7.90;99.90
2889;DHT22;1453;42.708;23.282;2023-03-07T04:36:10;7.80;99.90
2889;DHT22;1453;42.708;23.282;2023-03-07T04:38:37;7.60;99.90
2889;DHT22;1453;42.708;23.282;2023-03-07T04:41:04;7.70;99.90
2889;DHT22;1453;42.708;23.282;2023-03-07T04:43:31;7.80;99.90
2889;DHT22;1453;42.708;23.282;2023-03-07T04:45:57;7.80;99.90
2889;DHT22;1453;42.708;23.282;2023-03-07T04:48:22;7.70;99.90
2889;DHT22;1453;42.708;23.282;2023-03-07T04:50:50;7.70;99.90
2889;DHT22;1453;42.708;23.282;2023-03-07T04:53:17;7.70;99.90
2889;DHT22;1453;42.708;23.282;2023-03-07T04:55:44;7.70;99.90
2889;DHT22;1453;42.708;23.282;2023-03-07T04:58:10;7.90;99.90
2889;DHT22;1453;42.708;23.282;2023-03-07T05:00:42;8.00;99.90
2889;DHT22;1453;42.708;23.282;2023-03-07T05:03:10;7.80;99.90
2889;DHT22;1453;42.708;23.282;2023-03-07T05:05:37;7.70;99.90
2889;DHT22;1453;42.708;23.282;2023-03-07T05:08:03;7.70;99.90
2889;DHT22;1453;42.708;23.282;2023-03-07T05:10:31;7.80;99.90
2889;DHT22;1453;42.708;23.282;2023-03-07T05:12:57;7.70;99.90
2889;DHT22;1453;42.708;23.282;2023-03-07T05:15:23;7.40;99.90
2889;DHT22;1453;42.708;23.282;2023-03-07T05:17:49;7.40;99.90
2889;DHT22;1453;42.708;23.282;2023-03-07T05:20:15;7.60;99.90
2889;DHT22;1453;42.708;23.282;2023-03-07T05:22:41;7.80;99.90
2889;DHT22;1453;42.708;23.282;2023-03-07T05:25:07;8.00;99.90
2889;DHT22;1453;42.708;23.282;2023-03-07T05:27:33;8.00;99.90
2889;DHT22;1453;42.708;23.282;2023-03-07T05:29:59;7.90;99.90
2889;DHT22;1453;42.708;23.282;2023-03-07T05:32:25;7.80;99.90
2889;DHT22;1453;42.708;23.282;2023-03-07T05:34:51;7.90;99.90
2889;DHT22;1453;42.708;23.282;2023-03-07T05:37:17;7.90;99.90
2889;DHT22;1453;42.708;23.282;2023-03-07T05:39:42;7.90;99.90
2889;DHT22;1453;42.708;23.282;2023-03-07T05:42:08;7.90;99.90
2889;DHT22;1453;42.708;23.282;2023-03-07T05:44:34;7.90;99.90
2889;DHT22;1453;42.708;23.282;2023-03-07T05:47:00;7.90;99.90
2889;DHT22;1453;42.708;23.282;2023-03-07T05:49:26;8.10;99.90
2889;DHT22;1453;42.708;23.282;2023-03-07T05:51:52;8.00;99.90
2889;DHT22;1453;42.708;23.282;2023-03-07T05:54:18;7.90;99.90
2889;DHT22;1453;42.708;23.282;2023-03-07T05:56:44;7.90;99.90
2889;DHT22;1453;42.708;23.282;2023-03-07T05:59:10;7.50;99.90
2889;DHT22;1453;42.708;23.282;2023-03-07T06:01:40;7.70;99.90
2889;DHT22;1453;42.708;23.282;2023-03-07T06:04:06;7.90;99.90
2889;DHT22;1453;42.708;23.282;2023-03-07T06:06:32;8.10;99.90
2889;DHT22;1453;42.708;23.282;2023-03-07T06:08:58;8.20;99.90
2889;DHT22;1453;42.708;23.282;2023-03-07T06:11:24;8.20;99.90
2889;DHT22;1453;42.708;23.282;2023-03-07T06:13:52;8.20;99.90
2889;DHT22;1453;42.708;23.282;2023-03-07T06:16:20;8.30;99.90
2889;DHT22;1453;42.708;23.282;2023-03-07T06:18:46;8.30;99.90
2889;DHT22;1453;42.708;23.282;2023-03-07T06:21:14;8.30;99.90
2889;DHT22;1453;42.708;23.282;2023-03-07T06:23:41;8.50;99.90
2889;DHT22;1453;42.708;23.282;2023-03-07T06:26:08;8.60;99.90
2889;DHT22;1453;42.708;23.282;2023-03-07T06:28:35;8.70;99.90
2889;DHT22;1453;42.708;23.282;2023-03-07T06:31:07;8.80;99.90
2889;DHT22;1453;42.708;23.282;2023-03-07T06:33:37;9.10;99.90
2889;DHT22;1453;42.708;23.282;2023-03-07T06:36:08;9.10;99.90
2889;DHT22;1453;42.708;23.282;2023-03-07T06:38:36;9.00;99.90
2889;DHT22;1453;42.708;23.282;2023-03-07T06:41:02;9.20;99.90
2889;DHT22;1453;42.708;23.282;2023-03-07T06:43:28;9.30;99.90
2889;DHT22;1453;42.708;23.282;2023-03-07T06:45:54;9.20;99.90
2889;DHT22;1453;42.708;23.282;2023-03-07T06:48:20;8.90;99.90
2889;DHT22;1453;42.708;23.282;2023-03-07T06:50:46;8.90;99.90
2889;DHT22;1453;42.708;23.282;2023-03-07T06:53:12;9.10;99.90
2889;DHT22;1453;42.708;23.282;2023-03-07T06:55:38;9.30;99.90
2889;DHT22;1453;42.708;23.282;2023-03-07T06:58:04;9.10;99.90
2889;DHT22;1453;42.708;23.282;2023-03-07T07:00:30;9.20;99.90
2889;DHT22;1453;42.708;23.282;2023-03-07T07:02:55;9.40;99.90
2889;DHT22;1453;42.708;23.282;2023-03-07T07:05:21;9.50;99.90
2889;DHT22;1453;42.708;23.282;2023-03-07T07:07:47;9.60;99.90
2889;DHT22;1453;42.708;23.282;2023-03-07T07:10:13;9.60;99.90
2889;DHT22;1453;42.708;23.282;2023-03-07T07:12:39;9.90;99.90
2889;DHT22;1453;42.708;23.282;2023-03-07T07:15:05;10.50;99.90
2889;DHT22;1453;42.708;23.282;2023-03-07T07:17:32;11.10;99.90
2889;DHT22;1453;42.708;23.282;2023-03-07T07:20:00;11.60;99.90
2889;DHT22;1453;42.708;23.282;2023-03-07T07:22:29;11.60;99.90
2889;DHT22;1453;42.708;23.282;2023-03-07T07:24:55;11.90;98.70
2889;DHT22;1453;42.708;23.282;2023-03-07T07:27:21;12.80;96.60
2889;DHT22;1453;42.708;23.282;2023-03-07T07:29:47;13.20;93.30
2889;DHT22;1453;42.708;23.282;2023-03-07T07:32:13;12.80;92.90
2889;DHT22;1453;42.708;23.282;2023-03-07T07:34:39;12.80;92.00
2889;DHT22;1453;42.708;23.282;2023-03-07T07:37:05;12.50;92.00
2889;DHT22;1453;42.708;23.282;2023-03-07T07:39:31;12.10;92.70
2889;DHT22;1453;42.708;23.282;2023-03-07T07:41:56;11.90;93.70
2889;DHT22;1453;42.708;23.282;2023-03-07T07:44:22;12.30;94.20
2889;DHT22;1453;42.708;23.282;2023-03-07T07:46:48;11.70;94.20
2889;DHT22;1453;42.708;23.282;2023-03-07T07:49:15;11.30;96.50
2889;DHT22;1453;42.708;23.282;2023-03-07T07:51:40;11.30;96.80
2889;DHT22;1453;42.708;23.282;2023-03-07T07:54:07;10.90;97.70
2889;DHT22;1453;42.708;23.282;2023-03-07T07:56:34;10.70;99.90
2889;DHT22;1453;42.708;23.282;2023-03-07T07:59:00;10.70;99.80
2889;DHT22;1453;42.708;23.282;2023-03-07T08:01:26;10.60;99.90
2889;DHT22;1453;42.708;23.282;2023-03-07T08:03:52;11.00;99.90
2889;DHT22;1453;42.708;23.282;2023-03-07T08:06:20;11.50;99.90
2889;DHT22;1453;42.708;23.282;2023-03-07T08:08:47;11.40;99.60
2889;DHT22;1453;42.708;23.282;2023-03-07T08:11:14;11.00;99.90
2889;DHT22;1453;42.708;23.282;2023-03-07T08:13:41;10.90;99.90
2889;DHT22;1453;42.708;23.282;2023-03-07T08:16:11;11.20;99.90
2889;DHT22;1453;42.708;23.282;2023-03-07T08:18:40;12.30;97.40
2889;DHT22;1453;42.708;23.282;2023-03-07T08:21:06;12.60;94.40
2889;DHT22;1453;42.708;23.282;2023-03-07T08:23:34;12.60;93.80
2889;DHT22;1453;42.708;23.282;2023-03-07T08:26:04;12.80;93.50
2889;DHT22;1453;42.708;23.282;2023-03-07T08:28:31;13.10;93.00
2889;DHT22;1453;42.708;23.282;2023-03-07T08:30:58;13.60;91.40
2889;DHT22;1453;42.708;23.282;2023-03-07T08:33:24;13.90;89.00
2889;DHT22;1453;42.708;23.282;2023-03-07T08:35:49;14.20;87.40
2889;DHT22;1453;42.708;23.282;2023-03-07T08:38:15;14.00;85.70
2889;DHT22;1453;42.708;23.282;2023-03-07T08:40:41;14.20;86.30
2889;DHT22;1453;42.708;23.282;2023-03-07T08:43:07;14.20;86.10
2889;DHT22;1453;42.708;23.282;2023-03-07T08:45:33;14.20;83.30
2889;DHT22;1453;42.708;23.282;2023-03-07T08:47:59;13.90;84.70
2889;DHT22;1453;42.708;23.282;2023-03-07T08:50:27;14.10;84.10
2889;DHT22;1453;42.708;23.282;2023-03-07T08:52:53;14.40;82.90
2889;DHT22;1453;42.708;23.282;2023-03-07T08:55:19;14.40;83.10
2889;DHT22;1453;42.708;23.282;2023-03-07T08:57:44;14.40;81.30
2889;DHT22;1453;42.708;23.282;2023-03-07T09:00:12;14.20;81.80
2889;DHT22;1453;42.708;23.282;2023-03-07T09:02:38;14.50;81.90
2889;DHT22;1453;42.708;23.282;2023-03-07T09:05:05;14.10;80.40
2889;DHT22;1453;42.708;23.282;2023-03-07T09:07:31;13.60;82.40
2889;DHT22;1453;42.708;23.282;2023-03-07T09:09:57;14.00;83.40
2889;DHT22;1453;42.708;23.282;2023-03-07T09:12:23;14.20;82.50
2889;DHT22;1453;42.708;23.282;2023-03-07T09:14:52;15.10;79.70
2889;DHT22;1453;42.708;23.282;2023-03-07T09:17:19;14.90;78.80
2889;DHT22;1453;42.708;23.282;2023-03-07T09:19:45;15.50;76.80
2889;DHT22;1453;42.708;23.282;2023-03-07T09:22:11;16.30;74.70
2889;DHT22;1453;42.708;23.282;2023-03-07T09:24:36;17.30;70.30
2889;DHT22;1453;42.708;23.282;2023-03-07T09:27:02;18.60;66.30
2889;DHT22;1453;42.708;23.282;2023-03-07T09:29:28;18.80;65.70
2889;DHT22;1453;42.708;23.282;2023-03-07T09:31:54;19.10;64.70
2889;DHT22;1453;42.708;23.282;2023-03-07T09:34:20;20.00;62.50
2889;DHT22;1453;42.708;23.282;2023-03-07T09:36:45;21.60;59.50
2889;DHT22;1453;42.708;23.282;2023-03-07T09:39:15;22.50;56.90
2889;DHT22;1453;42.708;23.282;2023-03-07T09:45:19;21.10;53.80
2889;DHT22;1453;42.708;23.282;2023-03-07T09:48:05;20.20;55.50
2889;DHT22;1453;42.708;23.282;2023-03-07T09:50:55;18.90;54.20
2889;DHT22;1453;42.708;23.282;2023-03-07T09:53:36;16.70;56.90
2889;DHT22;1453;42.708;23.282;2023-03-07T09:56:11;17.60;58.30
2889;DHT22;1453;42.708;23.282;2023-03-07T09:58:43;17.40;56.50
2889;DHT22;1453;42.708;23.282;2023-03-07T10:01:13;16.90;55.90
2889;DHT22;1453;42.708;23.282;2023-03-07T10:03:55;17.40;55.50
2889;DHT22;1453;42.708;23.282;2023-03-07T10:06:45;16.50;56.10
2889;DHT22;1453;42.708;23.282;2023-03-07T10:09:19;16.60;56.80
2889;DHT22;1453;42.708;23.282;2023-03-07T10:18:00;19.00;52.10
2889;DHT22;1453;42.708;23.282;2023-03-07T10:21:05;18.40;52.30
2889;DHT22;1453;42.708;23.282;2023-03-07T10:29:31;16.80;52.30
2889;DHT22;1453;42.708;23.282;2023-03-07T10:34:39;16.80;55.00
2889;DHT22;1453;42.708;23.282;2023-03-07T10:37:16;18.10;52.60
2889;DHT22;1453;42.708;23.282;2023-03-07T10:39:51;18.20;52.10
2889;DHT22;1453;42.708;23.282;2023-03-07T10:42:21;15.10;52.70
2889;DHT22;1453;42.708;23.282;2023-03-07T10:44:49;15.00;55.10
2889;DHT22;1453;42.708;23.282;2023-03-07T10:49:47;14.60;54.10
2889;DHT22;1453;42.708;23.282;2023-03-07T10:52:31;15.50;54.40
2889;DHT22;1453;42.708;23.282;2023-03-07T11:03:43;15.10;53.90
2889;DHT22;1453;42.708;23.282;2023-03-07T11:06:26;15.00;55.20
2889;DHT22;1453;42.708;23.282;2023-03-07T11:08:52;16.30;55.00
2889;DHT22;1453;42.708;23.282;2023-03-07T11:11:29;15.20;53.90
2889;DHT22;1453;42.708;23.282;2023-03-07T11:14:11;15.80;54.60
2889;DHT22;1453;42.708;23.282;2023-03-07T11:16:52;16.60;53.90
2889;DHT22;1453;42.708;23.282;2023-03-07T11:19:36;18.40;53.00
2889;DHT22;1453;42.708;23.282;2023-03-07T11:22:26;18.90;51.20
2889;DHT22;1453;42.708;23.282;2023-03-07T11:27:45;17.00;50.40
2889;DHT22;1453;42.708;23.282;2023-03-07T11:35:51;14.30;53.50
2889;DHT22;1453;42.708;23.282;2023-03-07T11:47:38;15.80;52.90
2889;DHT22;1453;42.708;23.282;2023-03-07T11:50:24;15.80;52.30
2889;DHT22;1453;42.708;23.282;2023-03-07T11:53:56;15.50;51.30
2889;DHT22;1453;42.708;23.282;2023-03-07T11:56:35;16.10;52.20
2889;DHT22;1453;42.708;23.282;2023-03-07T12:02:01;16.80;51.00
2889;DHT22;1453;42.708;23.282;2023-03-07T12:07:28;16.50;52.50
2889;DHT22;1453;42.708;23.282;2023-03-07T12:18:45;16.20;48.70
2889;DHT22;1453;42.708;23.282;2023-03-07T12:24:05;15.90;47.60
2889;DHT22;1453;42.708;23.282;2023-03-07T12:26:52;15.80;47.20
2889;DHT22;1453;42.708;23.282;2023-03-07T12:32:23;15.90;50.30
2889;DHT22;1453;42.708;23.282;2023-03-07T12:35:44;16.20;51.70
2889;DHT22;1453;42.708;23.282;2023-03-07T12:38:21;16.50;51.50
2889;DHT22;1453;42.708;23.282;2023-03-07T12:41:00;15.60;50.60
2889;DHT22;1453;42.708;23.282;2023-03-07T12:43:37;16.60;51.70
2889;DHT22;1453;42.708;23.282;2023-03-07T12:46:11;16.80;49.40
2889;DHT22;1453;42.708;23.282;2023-03-07T12:49:08;16.20;48.90
2889;DHT22;1453;42.708;23.282;2023-03-07T12:51:46;16.20;49.60
2889;DHT22;1453;42.708;23.282;2023-03-07T12:54:17;16.60;48.80
2889;DHT22;1453;42.708;23.282;2023-03-07T12:57:19;16.80;48.90
2889;DHT22;1453;42.708;23.282;2023-03-07T12:59:52;16.50;48.80
2889;DHT22;1453;42.708;23.282;2023-03-07T13:02:30;16.90;47.40
2889;DHT22;1453;42.708;23.282;2023-03-07T13:04:58;16.80;46.00
2889;DHT22;1453;42.708;23.282;2023-03-07T13:07:31;17.00;46.60
2889;DHT22;1453;42.708;23.282;2023-03-07T13:09:59;16.70;47.00
2889;DHT22;1453;42.708;23.282;2023-03-07T13:12:34;16.90;47.70
2889;DHT22;1453;42.708;23.282;2023-03-07T13:23:20;16.00;47.50
2889;DHT22;1453;42.708;23.282;2023-03-07T13:26:02;15.70;47.00
2889;DHT22;1453;42.708;23.282;2023-03-07T13:28:42;15.70;47.30
2889;DHT22;1453;42.708;23.282;2023-03-07T13:31:23;16.30;48.20
2889;DHT22;1453;42.708;23.282;2023-03-07T13:33:53;15.90;47.60
2889;DHT22;1453;42.708;23.282;2023-03-07T13:39:00;16.20;48.30
2889;DHT22;1453;42.708;23.282;2023-03-07T13:41:47;16.00;48.40
2889;DHT22;1453;42.708;23.282;2023-03-07T13:46:55;15.80;48.60
2889;DHT22;1453;42.708;23.282;2023-03-07T13:49:33;16.20;49.00
2889;DHT22;1453;42.708;23.282;2023-03-07T13:52:24;15.70;49.50
2889;DHT22;1453;42.708;23.282;2023-03-07T13:54:55;16.10;50.00
2889;DHT22;1453;42.708;23.282;2023-03-07T13:57:27;15.90;49.80
2889;DHT22;1453;42.708;23.282;2023-03-07T13:59:55;15.70;50.00
2889;DHT22;1453;42.708;23.282;2023-03-07T14:02:21;15.90;50.50
2889;DHT22;1453;42.708;23.282;2023-03-07T14:04:50;16.40;49.70
2889;DHT22;1453;42.708;23.282;2023-03-07T14:07:32;16.80;48.80
2889;DHT22;1453;42.708;23.282;2023-03-07T14:10:04;15.50;48.70
2889;DHT22;1453;42.708;23.282;2023-03-07T14:21:46;15.50;50.30
2889;DHT22;1453;42.708;23.282;2023-03-07T14:27:13;15.50;50.20
2889;DHT22;1453;42.708;23.282;2023-03-07T14:29:51;14.80;50.30
2889;DHT22;1453;42.708;23.282;2023-03-07T14:32:27;14.70;51.00
2889;DHT22;1453;42.708;23.282;2023-03-07T14:34:55;14.50;51.40
2889;DHT22;1453;42.708;23.282;2023-03-07T14:37:26;14.60;51.60
2889;DHT22;1453;42.708;23.282;2023-03-07T14:40:14;14.60;50.90
2889;DHT22;1453;42.708;23.282;2023-03-07T14:45:35;14.90;50.50
2889;DHT22;1453;42.708;23.282;2023-03-07T14:50:58;14.60;50.60
2889;DHT22;1453;42.708;23.282;2023-03-07T14:53:28;14.40;50.50
2889;DHT22;1453;42.708;23.282;2023-03-07T14:55:56;14.00;51.10
2889;DHT22;1453;42.708;23.282;2023-03-07T14:58:29;14.10;51.60
2889;DHT22;1453;42.708;23.282;2023-03-07T15:01:12;13.90;51.20
2889;DHT22;1453;42.708;23.282;2023-03-07T15:03:47;14.00;51.30
2889;DHT22;1453;42.708;23.282;2023-03-07T15:06:17;14.10;50.50
2889;DHT22;1453;42.708;23.282;2023-03-07T15:08:45;14.00;49.90
2889;DHT22;1453;42.708;23.282;2023-03-07T15:11:37;13.90;50.10
2889;DHT22;1453;42.708;23.282;2023-03-07T15:14:13;13.80;50.30
2889;DHT22;1453;42.708;23.282;2023-03-07T15:16:50;13.80;51.20
2889;DHT22;1453;42.708;23.282;2023-03-07T15:19:43;14.10;51.70
2889;DHT22;1453;42.708;23.282;2023-03-07T15:22:23;13.80;52.00
2889;DHT22;1453;42.708;23.282;2023-03-07T15:24:50;13.70;51.90
2889;DHT22;1453;42.708;23.282;2023-03-07T15:27:28;13.60;51.80
2889;DHT22;1453;42.708;23.282;2023-03-07T15:29:56;13.60;51.90
2889;DHT22;1453;42.708;23.282;2023-03-07T15:37:58;13.60;52.50
2889;DHT22;1453;42.708;23.282;2023-03-07T15:40:29;13.50;52.60
2889;DHT22;1453;42.708;23.282;2023-03-07T15:42:57;13.50;53.20
2889;DHT22;1453;42.708;23.282;2023-03-07T15:45:55;13.40;52.80
2889;DHT22;1453;42.708;23.282;2023-03-07T15:51:04;13.40;53.10
2889;DHT22;1453;42.708;23.282;2023-03-07T15:53:35;13.40;53.10
2889;DHT22;1453;42.708;23.282;2023-03-07T15:56:05;13.20;52.90
2889;DHT22;1453;42.708;23.282;2023-03-07T15:58:44;13.30;53.30
2889;DHT22;1453;42.708;23.282;2023-03-07T16:01:23;13.20;52.90
2889;DHT22;1453;42.708;23.282;2023-03-07T16:03:55;13.20;53.10
2889;DHT22;1453;42.708;23.282;2023-03-07T16:09:03;13.20;53.70
2889;DHT22;1453;42.708;23.282;2023-03-07T16:11:30;13.10;52.80
2889;DHT22;1453;42.708;23.282;2023-03-07T16:13:57;13.10;52.90
2889;DHT22;1453;42.708;23.282;2023-03-07T16:16:26;13.10;53.00
2889;DHT22;1453;42.708;23.282;2023-03-07T16:18:54;13.10;53.20
2889;DHT22;1453;42.708;23.282;2023-03-07T16:21:24;13.00;53.40
2889;DHT22;1453;42.708;23.282;2023-03-07T16:23:50;13.00;53.80
2889;DHT22;1453;42.708;23.282;2023-03-07T16:26:19;13.00;54.00
2889;DHT22;1453;42.708;23.282;2023-03-07T16:28:47;12.90;54.40
2889;DHT22;1453;42.708;23.282;2023-03-07T16:31:16;12.90;54.60
2889;DHT22;1453;42.708;23.282;2023-03-07T16:33:43;12.80;54.70
2889;DHT22;1453;42.708;23.282;2023-03-07T16:36:10;12.80;54.90
2889;DHT22;1453;42.708;23.282;2023-03-07T16:38:38;12.80;55.30
2889;DHT22;1453;42.708;23.282;2023-03-07T16:41:17;12.70;55.40
2889;DHT22;1453;42.708;23.282;2023-03-07T16:43:54;12.70;55.80
2889;DHT22;1453;42.708;23.282;2023-03-07T16:46:25;12.70;56.10
2889;DHT22;1453;42.708;23.282;2023-03-07T16:48:52;12.60;56.30
2889;DHT22;1453;42.708;23.282;2023-03-07T16:51:20;12.60;56.70
2889;DHT22;1453;42.708;23.282;2023-03-07T16:53:48;12.50;56.90
2889;DHT22;1453;42.708;23.282;2023-03-07T16:56:28;12.50;57.00
2889;DHT22;1453;42.708;23.282;2023-03-07T16:58:57;12.40;57.20
2889;DHT22;1453;42.708;23.282;2023-03-07T17:01:24;12.40;57.50
2889;DHT22;1453;42.708;23.282;2023-03-07T17:03:50;12.40;57.80
2889;DHT22;1453;42.708;23.282;2023-03-07T17:06:16;12.30;58.00
2889;DHT22;1453;42.708;23.282;2023-03-07T17:08:43;12.30;58.30
2889;DHT22;1453;42.708;23.282;2023-03-07T17:11:27;12.20;58.50
2889;DHT22;1453;42.708;23.282;2023-03-07T17:13:56;12.30;58.40
2889;DHT22;1453;42.708;23.282;2023-03-07T17:16:25;12.20;58.50
2889;DHT22;1453;42.708;23.282;2023-03-07T17:18:51;12.20;58.40
2889;DHT22;1453;42.708;23.282;2023-03-07T17:21:19;12.20;58.40
2889;DHT22;1453;42.708;23.282;2023-03-07T17:23:46;12.10;58.40
2889;DHT22;1453;42.708;23.282;2023-03-07T17:26:36;12.10;58.50
2889;DHT22;1453;42.708;23.282;2023-03-07T17:29:07;12.10;58.00
2889;DHT22;1453;42.708;23.282;2023-03-07T17:31:36;12.10;57.90
2889;DHT22;1453;42.708;23.282;2023-03-07T17:34:02;12.10;57.70
2889;DHT22;1453;42.708;23.282;2023-03-07T17:36:29;12.00;57.50
2889;DHT22;1453;42.708;23.282;2023-03-07T17:38:56;12.00;57.60
2889;DHT22;1453;42.708;23.282;2023-03-07T17:41:22;12.00;57.80
2889;DHT22;1453;42.708;23.282;2023-03-07T17:43:47;11.90;58.00
2889;DHT22;1453;42.708;23.282;2023-03-07T17:46:13;11.80;58.10
2889;DHT22;1453;42.708;23.282;2023-03-07T17:48:39;11.90;58.20
2889;DHT22;1453;42.708;23.282;2023-03-07T17:51:09;11.90;58.00
2889;DHT22;1453;42.708;23.282;2023-03-07T17:53:36;11.80;58.30
2889;DHT22;1453;42.708;23.282;2023-03-07T17:56:08;11.70;58.30
2889;DHT22;1453;42.708;23.282;2023-03-07T17:58:35;11.70;58.60
2889;DHT22;1453;42.708;23.282;2023-03-07T18:01:03;11.60;58.90
2889;DHT22;1453;42.708;23.282;2023-03-07T18:03:33;11.60;59.10
2889;DHT22;1453;42.708;23.282;2023-03-07T18:05:59;11.60;59.50
2889;DHT22;1453;42.708;23.282;2023-03-07T18:08:25;11.60;59.60
2889;DHT22;1453;42.708;23.282;2023-03-07T18:10:53;11.50;59.90